sensor_id;sensor_type;location;lat;lon;timestamp;temperature;humidity
18321;DHT22;54904;54.350;18.664;2024-03-22T00:02:22;9.20;99.90
18321;DHT22;54904;54.350;18.664;2024-03-22T00:04:48;9.20;99.90
18321;DHT22;54904;54.350;18.664;2024-03-22T00:07:15;9.20;99.90
18321;DHT22;54904;54.350;18.664;2024-03-22T00:09:41;9.10;99.90
18321;DHT22;54904;54.350;18.664;2024-03-22T00:12:08;9.10;99.90
18321;DHT22;54904;54.350;18.664;2024-03-22T00:14:35;9.10;99.90
18321;DHT22;54904;54.350;18.664;2024-03-22T00:17:03;9.10;99.90
18321;DHT22;54904;54.350;18.664;2024-03-22T00:19:29;9.10;99.90
18321;DHT22;54904;54.350;18.664;2024-03-22T00:21:56;9.10;99.90
18321;DHT22;54904;54.350;18.664;2024-03-22T00:24:22;9.20;99.90
18321;DHT22;54904;54.350;18.664;2024-03-22T00:26:49;9.20;99.90
18321;DHT22;54904;54.350;18.664;2024-03-22T00:29:15;9.20;99.90
18321;DHT22;54904;54.350;18.664;2024-03-22T00:31:42;9.20;99.90
18321;DHT22;54904;54.350;18.664;2024-03-22T00:34:09;9.20;99.90
18321;DHT22;54904;54.350;18.664;2024-03-22T00:36:37;9.20;99.90
18321;DHT22;54904;54.350;18.664;2024-03-22T00:39:03;9.10;99.90
18321;DHT22;54904;54.350;18.664;2024-03-22T00:41:30;9.10;99.90
18321;DHT22;54904;54.350;18.664;2024-03-22T00:43:56;9.10;99.90
18321;DHT22;54904;54.350;18.664;2024-03-22T00:46:23;9.10;99.90
18321;DHT22;54904;54.350;18.664;2024-03-22T00:48:49;9.00;99.90
18321;DHT22;54904;54.350;18.664;2024-03-22T00:51:18;9.00;99.90
18321;DHT22;54904;54.350;18.664;2024-03-22T00:53:44;9.00;99.90
18321;DHT22;54904;54.350;18.664;2024-03-22T00:56:11;9.00;99.90
18321;DHT22;54904;54.350;18.664;2024-03-22T00:58:37;9.00;99.90
18321;DHT22;54904;54.350;18.664;2024-03-22T01:01:04;9.00;99.90
18321;DHT22;54904;54.350;18.664;2024-03-22T01:03:30;9.00;99.90
18321;DHT22;54904;54.350;18.664;2024-03-22T01:05:57;9.00;99.90
18321;DHT22;54904;54.350;18.664;2024-03-22T01:08:24;9.00;99.90
18321;DHT22;54904;54.350;18.664;2024-03-22T01:10:52;9.00;99.90
18321;DHT22;54904;54.350;18.664;2024-03-22T01:13:18;9.00;99.90
18321;DHT22;54904;54.350;18.664;2024-03-22T01:15:45;9.00;99.90
18321;DHT22;54904;54.350;18.664;2024-03-22T01:18:11;9.00;99.90
18321;DHT22;54904;54.350;18.664;2024-03-22T01:20:38;9.00;99.90
18321;DHT22;54904;54.350;18.664;2024-03-22T01:23:04;9.00;99.90
18321;DHT22;54904;54.350;18.664;2024-03-22T01:25:33;9.00;99.90
18321;DHT22;54904;54.350;18.664;2024-03-22T01:27:59;9.00;99.90
18321;DHT22;54904;54.350;18.664;2024-03-22T01:30:26;9.00;99.90
18321;DHT22;54904;54.350;18.664;2024-03-22T01:32:54;9.00;99.90
18321;DHT22;54904;54.350;18.664;2024-03-22T01:35:21;9.00;99.90
18321;DHT22;54904;54.350;18.664;2024-03-22T01:37:47;8.90;99.90
18321;DHT22;54904;54.350;18.664;2024-03-22T01:40:14;8.90;99.90
18321;DHT22;54904;54.350;18.664;2024-03-22T01:42:41;8.80;99.90
18321;DHT22;54904;54.350;18.664;2024-03-22T01:45:09;8.80;99.90
18321;DHT22;54904;54.350;18.664;2024-03-22T01:47:35;8.70;99.90
18321;DHT22;54904;54.350;18.664;2024-03-22T01:50:02;8.70;99.90
18321;DHT22;54904;54.350;18.664;2024-03-22T01:52:28;8.60;99.90
18321;DHT22;54904;54.350;18.664;2024-03-22T01:54:56;8.60;99.90
18321;DHT22;54904;54.350;18.664;2024-03-22T01:57:22;8.60;99.90
18321;DHT22;54904;54.350;18.664;2024-03-22T01:59:54;8.60;99.90
18321;DHT22;54904;54.350;18.664;2024-03-22T02:02:21;8.60;99.90
18321;DHT22;54904;54.350;18.664;2024-03-22T02:04:50;8.60;99.90
18321;DHT22;54904;54.350;18.664;2024-03-22T02:07:16;8.70;99.90
18321;DHT22;54904;54.350;18.664;2024-03-22T02:09:43;8.70;99.90
18321;DHT22;54904;54.350;18.664;2024-03-22T02:12:10;8.70;99.90
18321;DHT22;54904;54.350;18.664;2024-03-22T02:14:37;8.60;99.90
18321;DHT22;54904;54.350;18.664;2024-03-22T02:17:05;8.70;99.90
18321;DHT22;54904;54.350;18.664;2024-03-22T02:19:32;8.60;99.90
18321;DHT22;54904;54.350;18.664;2024-03-22T02:21:58;8.70;99.90
18321;DHT22;54904;54.350;18.664;2024-03-22T02:24:26;8.60;99.90
18321;DHT22;54904;54.350;18.664;2024-03-22T02:26:52;8.60;99.90
18321;DHT22;54904;54.350;18.664;2024-03-22T02:29:19;8.60;99.90
18321;DHT22;54904;54.350;18.664;2024-03-22T02:31:45;8.60;99.90
18321;DHT22;54904;54.350;18.664;2024-03-22T02:34:12;8.60;99.90
18321;DHT22;54904;54.350;18.664;2024-03-22T02:36:38;8.60;99.90
18321;DHT22;54904;54.350;18.664;2024-03-22T02:39:05;8.60;99.90
18321;DHT22;54904;54.350;18.664;2024-03-22T02:41:33;8.60;99.90
18321;DHT22;54904;54.350;18.664;2024-03-22T02:44:00;8.60;99.90
18321;DHT22;54904;54.350;18.664;2024-03-22T02:46:26;8.60;99.90
18321;DHT22;54904;54.350;18.664;2024-03-22T02:48:53;8.60;99.90
18321;DHT22;54904;54.350;18.664;2024-03-22T02:51:19;8.60;99.90
18321;DHT22;54904;54.350;18.664;2024-03-22T02:53:46;8.60;99.90
18321;DHT22;54904;54.350;18.664;2024-03-22T02:56:12;8.70;99.90
18321;DHT22;54904;54.350;18.664;2024-03-22T02:58:40;8.70;99.90
18321;DHT22;54904;54.350;18.664;2024-03-22T03:01:07;8.70;99.90
18321;DHT22;54904;54.350;18.664;2024-03-22T03:03:34;8.70;99.90
18321;DHT22;54904;54.350;18.664;2024-03-22T03:06:00;8.70;99.90
18321;DHT22;54904;54.350;18.664;2024-03-22T03:08:27;8.70;99.90
18321;DHT22;54904;54.350;18.664;2024-03-22T03:10:53;8.70;99.90
18321;DHT22;54904;54.350;18.664;2024-03-22T03:13:20;8.80;99.90
18321;DHT22;54904;54.350;18.664;2024-03-22T03:15:47;8.80;99.90
18321;DHT22;54904;54.350;18.664;2024-03-22T03:18:14;8.80;99.90
18321;DHT22;54904;54.350;18.664;2024-03-22T03:20:40;8.90;99.90
18321;DHT22;54904;54.350;18.664;2024-03-22T03:23:07;8.80;99.90
18321;DHT22;54904;54.350;18.664;2024-03-22T03:25:33;8.80;99.90
18321;DHT22;54904;54.350;18.664;2024-03-22T03:28:00;8.80;99.90
18321;DHT22;54904;54.350;18.664;2024-03-22T03:30:26;8.80;99.90
18321;DHT22;54904;54.350;18.664;2024-03-22T03:32:55;8.80;99.90
18321;DHT22;54904;54.350;18.664;2024-03-22T03:35:21;8.80;99.90
18321;DHT22;54904;54.350;18.664;2024-03-22T03:37:49;8.80;99.90
18321;DHT22;54904;54.350;18.664;2024-03-22T03:40:15;8.80;99.90
18321;DHT22;54904;54.350;18.664;2024-03-22T03:42:42;8.80;99.90
18321;DHT22;54904;54.350;18.664;2024-03-22T03:45:10;8.80;99.90
18321;DHT22;54904;54.350;18.664;2024-03-22T03:47:38;8.80;99.90
18321;DHT22;54904;54.350;18.664;2024-03-22T03:50:08;8.80;99.90
18321;DHT22;54904;54.350;18.664;2024-03-22T03:52:34;8.80;99.90
18321;DHT22;54904;54.350;18.664;2024-03-22T03:55:01;8.90;99.90
18321;DHT22;54904;54.350;18.664;2024-03-22T03:57:27;8.90;99.90
18321;DHT22;54904;54.350;18.664;2024-03-22T03:59:54;8.90;99.90
18321;DHT22;54904;54.350;18.664;2024-03-22T04:02:20;8.90;99.90
18321;DHT22;54904;54.350;18.664;2024-03-22T04:04:48;8.90;99.90
18321;DHT22;54904;54.350;18.664;2024-03-22T04:07:18;8.80;99.90
18321;DHT22;54904;54.350;18.664;2024-03-22T04:09:46;8.80;99.90
18321;DHT22;54904;54.350;18.664;2024-03-22T04:12:12;8.80;99.90
18321;DHT22;54904;54.350;18.664;2024-03-22T04:14:39;8.80;99.90
18321;DHT22;54904;54.350;18.664;2024-03-22T04:17:05;8.80;99.90
18321;DHT22;54904;54.350;18.664;2024-03-22T04:19:32;8.80;99.90
18321;DHT22;54904;54.350;18.664;2024-03-22T04:21:58;8.80;99.90
18321;DHT22;54904;54.350;18.664;2024-03-22T04:24:27;8.70;99.90
18321;DHT22;54904;54.350;18.664;2024-03-22T04:26:53;8.70;99.90
18321;DHT22;54904;54.350;18.664;2024-03-22T04:29:20;8.70;99.90
18321;DHT22;54904;54.350;18.664;2024-03-22T04:31:46;8.70;99.90
18321;DHT22;54904;54.350;18.664;2024-03-22T04:34:13;8.70;99.90
18321;DHT22;54904;54.350;18.664;2024-03-22T04:36:39;8.70;99.90
18321;DHT22;54904;54.350;18.664;2024-03-22T04:39:06;8.70;99.90
18321;DHT22;54904;54.350;18.664;2024-03-22T04:41:36;8.70;99.90
18321;DHT22;54904;54.350;18.664;2024-03-22T04:44:02;8.70;99.90
18321;DHT22;54904;54.350;18.664;2024-03-22T04:46:29;8.70;99.90
18321;DHT22;54904;54.350;18.664;2024-03-22T04:48:55;8.70;99.90
18321;DHT22;54904;54.350;18.664;2024-03-22T04:51:22;8.70;99.90
18321;DHT22;54904;54.350;18.664;2024-03-22T04:53:48;8.70;99.90
18321;DHT22;54904;54.350;18.664;2024-03-22T04:56:15;8.70;99.90
18321;DHT22;54904;54.350;18.664;2024-03-22T04:58:43;8.70;99.90
18321;DHT22;54904;54.350;18.664;2024-03-22T05:01:10;8.60;99.90
18321;DHT22;54904;54.350;18.664;2024-03-22T05:03:38;8.60;99.90
18321;DHT22;54904;54.350;18.664;2024-03-22T05:06:04;8.60;99.90
18321;DHT22;54904;54.350;18.664;2024-03-22T05:08:32;8.60;99.90
18321;DHT22;54904;54.350;18.664;2024-03-22T05:10:58;8.60;99.90
18321;DHT22;54904;54.350;18.664;2024-03-22T05:13:25;8.60;99.90
18321;DHT22;54904;54.350;18.664;2024-03-22T05:15:52;8.70;99.90
18321;DHT22;54904;54.350;18.664;2024-03-22T05:18:19;8.70;99.90
18321;DHT22;54904;54.350;18.664;2024-03-22T05:20:45;8.60;99.90
18321;DHT22;54904;54.350;18.664;2024-03-22T05:23:12;8.60;99.90
18321;DHT22;54904;54.350;18.664;2024-03-22T05:25:38;8.70;99.90
18321;DHT22;54904;54.350;18.664;2024-03-22T05:28:05;8.70;99.90
18321;DHT22;54904;54.350;18.664;2024-03-22T05:30:32;8.70;99.90
18321;DHT22;54904;54.350;18.664;2024-03-22T05:33:00;8.70;99.90
18321;DHT22;54904;54.350;18.664;2024-03-22T05:35:27;8.70;99.90
18321;DHT22;54904;54.350;18.664;2024-03-22T05:37:54;8.70;99.90
18321;DHT22;54904;54.350;18.664;2024-03-22T05:40:20;8.70;99.90
18321;DHT22;54904;54.350;18.664;2024-03-22T05:42:47;8.70;99.90
18321;DHT22;54904;54.350;18.664;2024-03-22T05:45:13;8.70;99.90
18321;DHT22;54904;54.350;18.664;2024-03-22T05:47:40;8.70;99.90
18321;DHT22;54904;54.350;18.664;2024-03-22T05:50:08;8.70;99.90
18321;DHT22;54904;54.350;18.664;2024-03-22T05:52:35;8.70;99.90
18321;DHT22;54904;54.350;18.664;2024-03-22T05:55:01;8.70;99.90
18321;DHT22;54904;54.350;18.664;2024-03-22T05:57:28;8.80;99.90
18321;DHT22;54904;54.350;18.664;2024-03-22T05:59:54;8.80;99.90
18321;DHT22;54904;54.350;18.664;2024-03-22T06:02:22;8.80;99.90
18321;DHT22;54904;54.350;18.664;2024-03-22T06:04:49;8.80;99.90
18321;DHT22;54904;54.350;18.664;2024-03-22T06:07:17;8.90;99.90
18321;DHT22;54904;54.350;18.664;2024-03-22T06:09:43;8.90;99.90
18321;DHT22;54904;54.350;18.664;2024-03-22T06:12:12;8.90;99.90
18321;DHT22;54904;54.350;18.664;2024-03-22T06:14:39;8.90;99.90
18321;DHT22;54904;54.350;18.664;2024-03-22T06:17:06;8.90;99.90
18321;DHT22;54904;54.350;18.664;2024-03-22T06:19:32;8.90;99.90
18321;DHT22;54904;54.350;18.664;2024-03-22T06:22:00;8.80;99.90
18321;DHT22;54904;54.350;18.664;2024-03-22T06:24:27;8.80;99.90
18321;DHT22;54904;54.350;18.664;2024-03-22T06:26:54;8.80;99.90
18321;DHT22;54904;54.350;18.664;2024-03-22T06:29:20;8.80;99.90
18321;DHT22;54904;54.350;18.664;2024-03-22T06:31:47;8.80;99.90
18321;DHT22;54904;54.350;18.664;2024-03-22T06:34:15;8.90;99.90
18321;DHT22;54904;54.350;18.664;2024-03-22T06:36:42;8.90;99.90
18321;DHT22;54904;54.350;18.664;2024-03-22T06:39:08;8.90;99.90
18321;DHT22;54904;54.350;18.664;2024-03-22T06:41:37;8.90;99.90
18321;DHT22;54904;54.350;18.664;2024-03-22T06:44:03;8.90;99.90
18321;DHT22;54904;54.350;18.664;2024-03-22T06:46:30;8.90;99.90
18321;DHT22;54904;54.350;18.664;2024-03-22T06:48:57;8.90;99.90
18321;DHT22;54904;54.350;18.664;2024-03-22T06:51:25;8.90;99.90
18321;DHT22;54904;54.350;18.664;2024-03-22T06:53:50;8.90;99.90
18321;DHT22;54904;54.350;18.664;2024-03-22T06:56:18;8.90;99.90
18321;DHT22;54904;54.350;18.664;2024-03-22T06:58:45;8.90;99.90
18321;DHT22;54904;54.350;18.664;2024-03-22T07:01:12;8.90;99.90
18321;DHT22;54904;54.350;18.664;2024-03-22T07:03:38;8.90;99.90
18321;DHT22;54904;54.350;18.664;2024-03-22T07:06:05;8.90;99.90
18321;DHT22;54904;54.350;18.664;2024-03-22T07:08:33;8.80;99.90
18321;DHT22;54904;54.350;18.664;2024-03-22T07:11:04;8.90;99.90
18321;DHT22;54904;54.350;18.664;2024-03-22T07:13:32;8.90;99.90
18321;DHT22;54904;54.350;18.664;2024-03-22T07:15:59;8.90;99.90
18321;DHT22;54904;54.350;18.664;2024-03-22T07:18:26;8.90;99.90
18321;DHT22;54904;54.350;18.664;2024-03-22T07:20:52;8.90;99.90
18321;DHT22;54904;54.350;18.664;2024-03-22T07:23:19;8.90;99.90
18321;DHT22;54904;54.350;18.664;2024-03-22T07:25:46;8.90;99.90
18321;DHT22;54904;54.350;18.664;2024-03-22T07:28:14;8.90;99.90
18321;DHT22;54904;54.350;18.664;2024-03-22T07:30:41;8.90;99.90
18321;DHT22;54904;54.350;18.664;2024-03-22T07:33:10;8.90;99.90
18321;DHT22;54904;54.350;18.664;2024-03-22T07:35:38;8.90;99.90
18321;DHT22;54904;54.350;18.664;2024-03-22T07:38:06;8.90;99.90
18321;DHT22;54904;54.350;18.664;2024-03-22T07:40:33;8.90;99.90
18321;DHT22;54904;54.350;18.664;2024-03-22T07:43:00;8.80;99.90
18321;DHT22;54904;54.350;18.664;2024-03-22T07:45:31;8.90;99.90
18321;DHT22;54904;54.350;18.664;2024-03-22T07:47:58;8.90;99.90
18321;DHT22;54904;54.350;18.664;2024-03-22T07:50:26;9.00;99.90
18321;DHT22;54904;54.350;18.664;2024-03-22T07:52:53;9.00;99.90
18321;DHT22;54904;54.350;18.664;2024-03-22T07:55:20;9.00;99.90
18321;DHT22;54904;54.350;18.664;2024-03-22T07:57:47;9.00;99.90
18321;DHT22;54904;54.350;18.664;2024-03-22T08:00:13;9.00;99.90
18321;DHT22;54904;54.350;18.664;2024-03-22T08:02:41;9.00;99.90
18321;DHT22;54904;54.350;18.664;2024-03-22T08:05:07;9.00;99.90
18321;DHT22;54904;54.350;18.664;2024-03-22T08:07:36;8.90;99.90
18321;DHT22;54904;54.350;18.664;2024-03-22T08:10:02;8.90;99.90
18321;DHT22;54904;54.350;18.664;2024-03-22T08:12:30;8.90;99.90
18321;DHT22;54904;54.350;18.664;2024-03-22T08:14:56;8.90;99.90
18321;DHT22;54904;54.350;18.664;2024-03-22T08:17:23;8.90;99.90
18321;DHT22;54904;54.350;18.664;2024-03-22T08:19:49;8.90;99.90
18321;DHT22;54904;54.350;18.664;2024-03-22T08:22:16;9.00;99.90
18321;DHT22;54904;54.350;18.664;2024-03-22T08:24:43;9.00;99.90
18321;DHT22;54904;54.350;18.664;2024-03-22T08:27:10;9.00;99.90
18321;DHT22;54904;54.350;18.664;2024-03-22T08:29:37;9.10;99.90
18321;DHT22;54904;54.350;18.664;2024-03-22T08:32:07;9.10;99.90
18321;DHT22;54904;54.350;18.664;2024-03-22T08:34:34;9.10;99.90
18321;DHT22;54904;54.350;18.664;2024-03-22T08:37:01;9.10;99.90
18321;DHT22;54904;54.350;18.664;2024-03-22T08:39:29;9.10;99.90
18321;DHT22;54904;54.350;18.664;2024-03-22T08:41:57;9.10;99.90
18321;DHT22;54904;54.350;18.664;2024-03-22T08:44:23;9.10;99.90
18321;DHT22;54904;54.350;18.664;2024-03-22T08:46:50;9.10;99.90
18321;DHT22;54904;54.350;18.664;2024-03-22T08:49:17;9.10;99.90
18321;DHT22;54904;54.350;18.664;2024-03-22T08:51:45;9.10;99.90
18321;DHT22;54904;54.350;18.664;2024-03-22T08:54:11;9.10;99.90
18321;DHT22;54904;54.350;18.664;2024-03-22T08:56:38;9.20;99.90
18321;DHT22;54904;54.350;18.664;2024-03-22T08:59:06;9.20;99.90
18321;DHT22;54904;54.350;18.664;2024-03-22T09:01:33;9.20;99.90
18321;DHT22;54904;54.350;18.664;2024-03-22T09:03:59;9.30;99.90
18321;DHT22;54904;54.350;18.664;2024-03-22T09:06:26;9.30;99.90
18321;DHT22;54904;54.350;18.664;2024-03-22T09:08:52;9.40;99.90
18321;DHT22;54904;54.350;18.664;2024-03-22T09:11:21;9.40;99.90
18321;DHT22;54904;54.350;18.664;2024-03-22T09:13:47;9.40;99.90
18321;DHT22;54904;54.350;18.664;2024-03-22T09:16:16;9.50;99.90
18321;DHT22;54904;54.350;18.664;2024-03-22T09:18:43;9.50;99.90
18321;DHT22;54904;54.350;18.664;2024-03-22T09:21:10;9.50;99.90
18321;DHT22;54904;54.350;18.664;2024-03-22T09:23:37;9.50;99.90
18321;DHT22;54904;54.350;18.664;2024-03-22T09:26:03;9.50;99.90
18321;DHT22;54904;54.350;18.664;2024-03-22T09:28:31;9.50;99.90
18321;DHT22;54904;54.350;18.664;2024-03-22T09:30:57;9.60;99.90
18321;DHT22;54904;54.350;18.664;2024-03-22T09:33:26;9.60;99.90
18321;DHT22;54904;54.350;18.664;2024-03-22T09:35:52;9.60;99.90
18321;DHT22;54904;54.350;18.664;2024-03-22T09:38:19;9.70;99.90
18321;DHT22;54904;54.350;18.664;2024-03-22T09:40:46;9.70;99.90
18321;DHT22;54904;54.350;18.664;2024-03-22T09:43:15;9.70;99.90
18321;DHT22;54904;54.350;18.664;2024-03-22T09:45:45;9.80;99.90
18321;DHT22;54904;54.350;18.664;2024-03-22T09:48:12;9.80;99.90
18321;DHT22;54904;54.350;18.664;2024-03-22T09:50:41;9.80;99.90
18321;DHT22;54904;54.350;18.664;2024-03-22T09:53:08;9.80;99.90
18321;DHT22;54904;54.350;18.664;2024-03-22T09:55:37;9.70;99.90
18321;DHT22;54904;54.350;18.664;2024-03-22T09:58:05;9.70;99.90
18321;DHT22;54904;54.350;18.664;2024-03-22T10:00:31;9.70;99.90
18321;DHT22;54904;54.350;18.664;2024-03-22T10:03:00;9.80;99.90
18321;DHT22;54904;54.350;18.664;2024-03-22T10:05:26;9.80;99.90
18321;DHT22;54904;54.350;18.664;2024-03-22T10:07:54;9.70;99.90
18321;DHT22;54904;54.350;18.664;2024-03-22T10:10:21;9.80;99.90
18321;DHT22;54904;54.350;18.664;2024-03-22T10:12:48;9.80;99.90
18321;DHT22;54904;54.350;18.664;2024-03-22T10:15:14;9.80;99.90
18321;DHT22;54904;54.350;18.664;2024-03-22T10:17:42;9.80;99.90
18321;DHT22;54904;54.350;18.664;2024-03-22T10:20:12;9.90;99.90
18321;DHT22;54904;54.350;18.664;2024-03-22T10:22:42;9.90;99.90
18321;DHT22;54904;54.350;18.664;2024-03-22T10:25:09;9.90;99.90
18321;DHT22;54904;54.350;18.664;2024-03-22T10:27:38;9.90;99.90
18321;DHT22;54904;54.350;18.664;2024-03-22T10:30:08;9.80;99.90
18321;DHT22;54904;54.350;18.664;2024-03-22T10:32:36;9.80;99.90
18321;DHT22;54904;54.350;18.664;2024-03-22T10:35:03;9.90;99.90
18321;DHT22;54904;54.350;18.664;2024-03-22T10:37:33;9.90;99.90
18321;DHT22;54904;54.350;18.664;2024-03-22T10:40:01;9.90;99.90
18321;DHT22;54904;54.350;18.664;2024-03-22T10:42:34;9.90;99.90
18321;DHT22;54904;54.350;18.664;2024-03-22T10:45:01;10.00;99.90
18321;DHT22;54904;54.350;18.664;2024-03-22T10:47:30;10.00;99.90
18321;DHT22;54904;54.350;18.664;2024-03-22T10:49:58;10.00;99.90
18321;DHT22;54904;54.350;18.664;2024-03-22T10:52:28;10.00;99.90
18321;DHT22;54904;54.350;18.664;2024-03-22T10:54:58;10.00;99.90
18321;DHT22;54904;54.350;18.664;2024-03-22T10:57:25;10.00;99.90
18321;DHT22;54904;54.350;18.664;2024-03-22T10:59:55;10.00;99.90
18321;DHT22;54904;54.350;18.664;2024-03-22T11:02:24;10.00;99.90
18321;DHT22;54904;54.350;18.664;2024-03-22T11:04:59;10.10;99.90
18321;DHT22;54904;54.350;18.664;2024-03-22T11:07:29;10.10;99.90
18321;DHT22;54904;54.350;18.664;2024-03-22T11:09:57;10.10;99.90
18321;DHT22;54904;54.350;18.664;2024-03-22T11:12:25;10.20;99.90
18321;DHT22;54904;54.350;18.664;2024-03-22T11:14:52;10.20;99.90
18321;DHT22;54904;54.350;18.664;2024-03-22T11:17:21;10.20;99.90
18321;DHT22;54904;54.350;18.664;2024-03-22T11:19:50;10.20;99.90
18321;DHT22;54904;54.350;18.664;2024-03-22T11:22:17;10.20;99.90
18321;DHT22;54904;54.350;18.664;2024-03-22T11:24:43;10.30;99.90
18321;DHT22;54904;54.350;18.664;2024-03-22T11:27:11;10.30;99.90
18321;DHT22;54904;54.350;18.664;2024-03-22T11:29:38;10.30;99.90
18321;DHT22;54904;54.350;18.664;2024-03-22T11:32:07;10.30;99.90
18321;DHT22;54904;54.350;18.664;2024-03-22T11:34:37;10.30;99.90
18321;DHT22;54904;54.350;18.664;2024-03-22T11:37:05;10.40;99.90
18321;DHT22;54904;54.350;18.664;2024-03-22T11:39:33;10.40;99.90
18321;DHT22;54904;54.350;18.664;2024-03-22T11:42:02;10.40;99.90
18321;DHT22;54904;54.350;18.664;2024-03-22T11:44:29;10.50;99.90
18321;DHT22;54904;54.350;18.664;2024-03-22T11:46:56;10.50;99.90
18321;DHT22;54904;54.350;18.664;2024-03-22T11:49:22;10.50;99.90
18321;DHT22;54904;54.350;18.664;2024-03-22T11:51:51;10.50;99.90
18321;DHT22;54904;54.350;18.664;2024-03-22T11:54:19;10.50;99.90
18321;DHT22;54904;54.350;18.664;2024-03-22T11:56:46;10.60;99.90
18321;DHT22;54904;54.350;18.664;2024-03-22T11:59:13;10.50;99.90
18321;DHT22;54904;54.350;18.664;2024-03-22T12:01:40;10.60;99.90
18321;DHT22;54904;54.350;18.664;2024-03-22T12:04:07;10.60;99.90
18321;DHT22;54904;54.350;18.664;2024-03-22T12:06:34;10.60;99.90
18321;DHT22;54904;54.350;18.664;2024-03-22T12:09:01;10.70;99.90
18321;DHT22;54904;54.350;18.664;2024-03-22T12:11:29;10.70;99.90
18321;DHT22;54904;54.350;18.664;2024-03-22T12:13:55;10.70;99.90
18321;DHT22;54904;54.350;18.664;2024-03-22T12:16:24;10.70;99.90
18321;DHT22;54904;54.350;18.664;2024-03-22T12:18:50;10.70;99.90
18321;DHT22;54904;54.350;18.664;2024-03-22T12:21:17;10.80;99.90
18321;DHT22;54904;54.350;18.664;2024-03-22T12:23:43;10.80;99.90
18321;DHT22;54904;54.350;18.664;2024-03-22T12:26:13;10.90;99.90
18321;DHT22;54904;54.350;18.664;2024-03-22T12:28:39;10.90;99.90
18321;DHT22;54904;54.350;18.664;2024-03-22T12:31:08;10.90;99.90
18321;DHT22;54904;54.350;18.664;2024-03-22T12:33:36;10.90;99.90
18321;DHT22;54904;54.350;18.664;2024-03-22T12:36:03;10.90;99.90
18321;DHT22;54904;54.350;18.664;2024-03-22T12:38:29;10.90;99.90
18321;DHT22;54904;54.350;18.664;2024-03-22T12:40:57;10.90;99.90
18321;DHT22;54904;54.350;18.664;2024-03-22T12:43:24;11.00;99.90
18321;DHT22;54904;54.350;18.664;2024-03-22T12:45:51;11.10;99.90
18321;DHT22;54904;54.350;18.664;2024-03-22T12:48:17;11.10;99.90
18321;DHT22;54904;54.350;18.664;2024-03-22T12:50:45;11.10;99.90
18321;DHT22;54904;54.350;18.664;2024-03-22T12:53:11;11.10;99.90
18321;DHT22;54904;54.350;18.664;2024-03-22T12:55:38;11.10;99.90
18321;DHT22;54904;54.350;18.664;2024-03-22T12:58:04;11.10;99.90
18321;DHT22;54904;54.350;18.664;2024-03-22T13:00:32;11.10;99.90
18321;DHT22;54904;54.350;18.664;2024-03-22T13:02:59;11.20;99.90
18321;DHT22;54904;54.350;18.664;2024-03-22T13:05:26;11.20;99.90
18321;DHT22;54904;54.350;18.664;2024-03-22T13:07:55;11.20;99.90
18321;DHT22;54904;54.350;18.664;2024-03-22T13:10:21;11.30;99.90
18321;DHT22;54904;54.350;18.664;2024-03-22T13:12:48;11.30;99.90
18321;DHT22;54904;54.350;18.664;2024-03-22T13:15:15;11.30;99.90
18321;DHT22;54904;54.350;18.664;2024-03-22T13:17:42;11.30;99.90
18321;DHT22;54904;54.350;18.664;2024-03-22T13:20:10;11.20;99.90
18321;DHT22;54904;54.350;18.664;2024-03-22T13:22:38;11.30;99.90
18321;DHT22;54904;54.350;18.664;2024-03-22T13:25:05;11.20;99.90
18321;DHT22;54904;54.350;18.664;2024-03-22T13:27:33;11.30;99.90
18321;DHT22;54904;54.350;18.664;2024-03-22T13:30:00;11.30;99.90
18321;DHT22;54904;54.350;18.664;2024-03-22T13:32:26;11.30;99.90
18321;DHT22;54904;54.350;18.664;2024-03-22T13:34:54;11.20;99.90
18321;DHT22;54904;54.350;18.664;2024-03-22T13:37:20;11.20;99.90
18321;DHT22;54904;54.350;18.664;2024-03-22T13:39:48;11.30;99.90
18321;DHT22;54904;54.350;18.664;2024-03-22T13:42:15;11.30;99.90
18321;DHT22;54904;54.350;18.664;2024-03-22T13:44:42;11.30;99.90
18321;DHT22;54904;54.350;18.664;2024-03-22T13:47:08;11.30;99.90
18321;DHT22;54904;54.350;18.664;2024-03-22T13:49:35;11.30;99.90
18321;DHT22;54904;54.350;18.664;2024-03-22T13:52:03;11.30;99.90
18321;DHT22;54904;54.350;18.664;2024-03-22T13:54:30;11.30;99.90
18321;DHT22;54904;54.350;18.664;2024-03-22T13:56:56;11.40;99.90
18321;DHT22;54904;54.350;18.664;2024-03-22T13:59:23;11.40;99.90
18321;DHT22;54904;54.350;18.664;2024-03-22T14:01:49;11.30;99.90
18321;DHT22;54904;54.350;18.664;2024-03-22T14:04:16;11.30;99.90
18321;DHT22;54904;54.350;18.664;2024-03-22T14:06:42;11.30;99.90
18321;DHT22;54904;54.350;18.664;2024-03-22T14:09:11;11.40;99.90
18321;DHT22;54904;54.350;18.664;2024-03-22T14:11:38;11.40;99.90
18321;DHT22;54904;54.350;18.664;2024-03-22T14:14:05;11.40;99.90
18321;DHT22;54904;54.350;18.664;2024-03-22T14:16:33;11.40;99.90
18321;DHT22;54904;54.350;18.664;2024-03-22T14:19:00;11.40;99.90
18321;DHT22;54904;54.350;18.664;2024-03-22T14:21:26;11.50;99.90
18321;DHT22;54904;54.350;18.664;2024-03-22T14:23:53;11.50;99.90
18321;DHT22;54904;54.350;18.664;2024-03-22T14:26:21;11.50;99.90
18321;DHT22;54904;54.350;18.664;2024-03-22T14:28:49;11.50;99.90
18321;DHT22;54904;54.350;18.664;2024-03-22T14:31:16;11.50;99.90
18321;DHT22;54904;54.350;18.664;2024-03-22T14:33:43;11.60;99.90
18321;DHT22;54904;54.350;18.664;2024-03-22T14:36:10;11.60;99.90
18321;DHT22;54904;54.350;18.664;2024-03-22T14:38:38;11.60;99.90
18321;DHT22;54904;54.350;18.664;2024-03-22T14:41:05;11.70;99.90
18321;DHT22;54904;54.350;18.664;2024-03-22T14:43:33;11.70;99.90
18321;DHT22;54904;54.350;18.664;2024-03-22T14:46:01;11.70;99.90
18321;DHT22;54904;54.350;18.664;2024-03-22T14:48:29;11.70;99.90
18321;DHT22;54904;54.350;18.664;2024-03-22T14:50:55;11.70;99.90
18321;DHT22;54904;54.350;18.664;2024-03-22T14:53:22;11.70;99.90
18321;DHT22;54904;54.350;18.664;2024-03-22T14:55:52;11.70;99.90
18321;DHT22;54904;54.350;18.664;2024-03-22T14:58:20;11.80;99.90
18321;DHT22;54904;54.350;18.664;2024-03-22T15:00:52;11.80;99.90
18321;DHT22;54904;54.350;18.664;2024-03-22T15:03:20;11.80;99.90
18321;DHT22;54904;54.350;18.664;2024-03-22T15:05:46;11.80;99.90
18321;DHT22;54904;54.350;18.664;2024-03-22T15:08:13;11.80;99.90
18321;DHT22;54904;54.350;18.664;2024-03-22T15:10:39;11.80;99.90
18321;DHT22;54904;54.350;18.664;2024-03-22T15:13:06;11.80;99.90
18321;DHT22;54904;54.350;18.664;2024-03-22T15:15:32;11.80;99.90
18321;DHT22;54904;54.350;18.664;2024-03-22T15:18:01;11.80;99.90
18321;DHT22;54904;54.350;18.664;2024-03-22T15:20:27;11.80;99.90
18321;DHT22;54904;54.350;18.664;2024-03-22T15:22:55;11.80;99.90
18321;DHT22;54904;54.350;18.664;2024-03-22T15:25:21;11.80;99.90
18321;DHT22;54904;54.350;18.664;2024-03-22T15:27:48;11.80;99.90